createdAt,value
2019-02-23T00:01:46.354Z,64.67
2019-02-23T00:04:14.542Z,64.43
2019-02-23T00:06:41.587Z,65.53
2019-02-23T00:09:08.867Z,64.89
2019-02-23T00:11:36.215Z,64.04
2019-02-23T00:14:03.515Z,63.81
2019-02-23T00:16:30.620Z,63.93
2019-02-23T00:18:59.005Z,64.23
2019-02-23T00:21:26.108Z,63.99
2019-02-23T00:23:54.450Z,63.67
2019-02-23T00:26:22.257Z,64.00
2019-02-23T00:28:49.327Z,62.71
2019-02-23T00:31:16.361Z,63.04
2019-02-23T00:33:43.431Z,63.61
2019-02-23T00:36:10.471Z,63.65
2019-02-23T00:38:37.513Z,62.84
2019-02-23T00:41:04.665Z,63.72
2019-02-23T00:43:31.898Z,63.38
2019-02-23T00:45:59.335Z,62.82
2019-02-23T00:48:28.089Z,63.07
2019-02-23T00:50:55.546Z,63.02
2019-02-23T00:53:23.310Z,61.85
2019-02-23T00:55:50.699Z,62.23
2019-02-23T00:58:18.427Z,62.71
2019-02-23T01:00:45.520Z,62.62
2019-02-23T01:03:12.665Z,62.52
2019-02-23T01:05:41.824Z,62.27
2019-02-23T01:08:08.916Z,62.50
2019-02-23T01:10:38.011Z,61.93
2019-02-23T01:13:05.587Z,62.19
2019-02-23T01:15:33.757Z,61.73
2019-02-23T01:18:01.969Z,61.19
2019-02-23T01:20:29.337Z,60.72
2019-02-23T01:22:56.988Z,61.42
2019-02-23T01:25:25.517Z,61.25
2019-02-23T01:27:52.615Z,60.65
2019-02-23T01:30:20.621Z,61.18
2019-02-23T01:32:50.101Z,61.62
2019-02-23T01:35:18.583Z,61.03
2019-02-23T01:37:46.245Z,60.91
2019-02-23T01:40:15.444Z,60.97
2019-02-23T01:42:44.043Z,61.29
2019-02-23T01:45:11.482Z,60.77
2019-02-23T01:47:40.984Z,60.73
2019-02-23T01:50:08.506Z,61.02
2019-02-23T01:52:35.963Z,61.14
2019-02-23T01:55:03.638Z,61.45
2019-02-23T01:57:32.537Z,60.78
2019-02-23T01:59:59.609Z,60.74
2019-02-23T02:02:27.261Z,61.35
2019-02-23T02:04:55.340Z,61.32
2019-02-23T02:07:22.730Z,61.32
2019-02-23T02:09:50.887Z,60.42
2019-02-23T02:12:19.061Z,60.61
2019-02-23T02:14:47.851Z,60.74
2019-02-23T02:17:14.903Z,60.92
2019-02-23T02:19:42.969Z,60.14
2019-02-23T02:22:11.123Z,60.66
2019-02-23T02:24:38.204Z,60.25
2019-02-23T02:27:06.364Z,60.31
2019-02-23T02:29:33.454Z,60.91
2019-02-23T02:32:00.530Z,61.21
2019-02-23T02:34:28.713Z,61.31
2019-02-23T02:36:55.779Z,62.09
2019-02-23T02:39:22.843Z,62.26
2019-02-23T02:41:49.898Z,60.73
2019-02-23T02:44:17.079Z,61.46
2019-02-23T02:46:44.194Z,60.82
2019-02-23T02:49:11.682Z,61.19
2019-02-23T02:51:38.762Z,61.53
2019-02-23T02:54:06.203Z,60.78
2019-02-23T02:56:33.874Z,59.10
2019-02-23T02:59:03.384Z,60.22
2019-02-23T03:01:30.998Z,61.08
2019-02-23T03:03:58.508Z,61.77
2019-02-23T03:06:25.842Z,61.08
2019-02-23T03:08:53.614Z,60.47
2019-02-23T03:11:20.974Z,59.73
2019-02-23T03:13:49.859Z,59.84
2019-02-23T03:16:17.622Z,59.49
2019-02-23T03:18:48.698Z,60.34
2019-02-23T03:21:15.942Z,59.72
2019-02-23T03:23:43.018Z,59.37
2019-02-23T03:26:10.432Z,59.82
2019-02-23T03:28:37.831Z,60.48
2019-02-23T03:31:06.733Z,59.98
2019-02-23T03:33:34.380Z,60.02
2019-02-23T03:36:01.426Z,60.30
2019-02-23T03:38:28.511Z,60.00
2019-02-23T03:40:55.670Z,59.71
2019-02-23T03:43:22.735Z,60.78
2019-02-23T03:45:51.001Z,60.66
2019-02-23T03:48:18.060Z,60.44
2019-02-23T03:50:49.128Z,61.33
2019-02-23T03:53:14.101Z,59.38
2019-02-23T03:55:42.945Z,60.24
2019-02-23T03:58:10.438Z,60.58
2019-02-23T04:00:39.296Z,61.30
2019-02-23T04:03:06.353Z,61.90
2019-02-23T04:05:33.400Z,62.16
2019-02-23T04:08:01.516Z,62.35
2019-02-23T04:10:30.172Z,61.97
2019-02-23T04:13:02.119Z,60.22
2019-02-23T04:15:30.220Z,61.13
2019-02-23T04:17:57.265Z,59.80
2019-02-23T04:20:25.427Z,60.57
2019-02-23T04:22:52.499Z,60.35
2019-02-23T04:25:19.537Z,60.89
2019-02-23T04:27:46.600Z,60.77
2019-02-23T04:30:15.161Z,60.14
2019-02-23T04:32:43.439Z,59.21
2019-02-23T04:35:10.546Z,59.24
2019-02-23T04:37:37.624Z,58.74
2019-02-23T04:40:05.506Z,59.25
2019-02-23T04:42:33.304Z,59.27
2019-02-23T04:45:00.755Z,59.45
2019-02-23T04:47:27.761Z,60.38
2019-02-23T04:49:55.334Z,59.48
2019-02-23T04:52:22.742Z,59.63
2019-02-23T04:54:49.829Z,58.58
2019-02-23T04:57:17.376Z,59.52
2019-02-23T04:59:46.071Z,59.09
2019-02-23T05:02:13.623Z,58.71
2019-02-23T05:04:40.665Z,59.54
2019-02-23T05:07:08.125Z,59.09
2019-02-23T05:09:35.215Z,59.09
2019-02-23T05:12:02.253Z,59.37
2019-02-23T05:14:31.582Z,59.61
2019-02-23T05:16:58.641Z,59.33
2019-02-23T05:19:26.208Z,58.74
2019-02-23T05:21:54.353Z,59.57
2019-02-23T05:24:21.439Z,59.30
2019-02-23T05:26:48.509Z,59.97
2019-02-23T05:29:15.628Z,59.38
2019-02-23T05:31:43.781Z,59.45
2019-02-23T05:34:10.860Z,59.33
2019-02-23T05:36:37.904Z,58.73
2019-02-23T05:39:05.933Z,59.35
2019-02-23T05:41:33.575Z,58.75
2019-02-23T05:44:00.657Z,59.18
2019-02-23T05:46:27.762Z,59.70
2019-02-23T05:48:55.903Z,60.31
2019-02-23T05:51:23.075Z,58.91
2019-02-23T05:53:50.365Z,59.57
2019-02-23T05:56:17.410Z,58.93
2019-02-23T05:58:44.460Z,59.25
2019-02-23T06:01:11.523Z,58.58
2019-02-23T06:03:38.921Z,59.30
2019-02-23T06:06:06.582Z,59.57
2019-02-23T06:08:35.269Z,58.96
2019-02-23T06:11:02.315Z,58.65
2019-02-23T06:13:29.771Z,58.81
2019-02-23T06:15:57.127Z,59.74
2019-02-23T06:18:24.175Z,58.35
2019-02-23T06:20:52.857Z,59.56
2019-02-23T06:23:20.253Z,59.39
2019-02-23T06:25:48.286Z,59.29
2019-02-23T06:28:15.331Z,59.41
2019-02-23T06:30:42.691Z,59.51
2019-02-23T06:33:09.732Z,60.00
2019-02-23T06:35:36.793Z,60.04
2019-02-23T06:38:03.863Z,60.03
2019-02-23T06:40:32.015Z,60.11
2019-02-23T06:43:01.299Z,59.52
2019-02-23T06:45:29.369Z,60.12
2019-02-23T06:47:56.440Z,60.33
2019-02-23T06:50:23.484Z,60.01
2019-02-23T06:52:50.527Z,59.56
2019-02-23T06:55:17.718Z,59.15
2019-02-23T06:57:44.766Z,59.49
2019-02-23T07:00:13.084Z,59.96
2019-02-23T07:02:40.169Z,58.57
2019-02-23T07:05:07.317Z,58.54
2019-02-23T07:07:34.363Z,57.64
2019-02-23T07:10:01.449Z,57.93
2019-02-23T07:12:28.507Z,58.64
2019-02-23T07:14:55.586Z,58.33
2019-02-23T07:17:23.235Z,57.71
2019-02-23T07:19:50.590Z,57.88
2019-02-23T07:22:18.046Z,57.17
2019-02-23T07:24:45.398Z,56.34
2019-02-23T07:27:13.161Z,56.09
2019-02-23T07:29:40.526Z,56.07
2019-02-23T07:32:07.596Z,56.55
2019-02-23T07:34:35.530Z,57.12
2019-02-23T07:37:02.891Z,57.56
2019-02-23T07:39:29.969Z,57.77
2019-02-23T07:41:57.695Z,57.98
2019-02-23T07:44:25.871Z,57.75
2019-02-23T07:46:53.227Z,57.87
2019-02-23T07:49:20.272Z,57.96
2019-02-23T07:51:47.632Z,57.38
2019-02-23T07:54:14.668Z,58.41
2019-02-23T07:56:42.034Z,57.37
2019-02-23T07:59:09.434Z,57.27
2019-02-23T08:01:36.843Z,57.37
2019-02-23T08:04:04.217Z,57.57
2019-02-23T08:06:31.616Z,57.78
2019-02-23T08:08:59.762Z,57.42
2019-02-23T08:11:26.879Z,57.55
2019-02-23T08:13:53.911Z,57.88
2019-02-23T08:16:21.088Z,57.28
2019-02-23T08:18:48.106Z,57.67
2019-02-23T08:21:15.169Z,57.71
2019-02-23T08:23:42.935Z,56.76
2019-02-23T08:26:10.026Z,56.70
2019-02-23T08:28:38.046Z,56.51
2019-02-23T08:31:05.711Z,56.54
2019-02-23T08:33:34.112Z,56.69
2019-02-23T08:36:03.489Z,57.01
2019-02-23T08:38:31.172Z,57.85
2019-02-23T08:41:00.348Z,56.31
2019-02-23T08:43:29.034Z,56.03
2019-02-23T08:45:56.405Z,55.30
2019-02-23T08:48:24.890Z,56.03
2019-02-23T08:50:52.229Z,56.00
2019-02-23T08:53:21.219Z,54.44
2019-02-23T08:55:48.294Z,54.04
2019-02-23T08:58:17.151Z,54.63
2019-02-23T09:00:44.227Z,55.23
2019-02-23T09:03:11.395Z,54.71
2019-02-23T09:05:38.489Z,54.77
2019-02-23T09:08:05.888Z,51.64
2019-02-23T09:10:33.623Z,51.02
2019-02-23T09:13:01.691Z,51.47
2019-02-23T09:15:29.048Z,51.35
2019-02-23T09:17:56.508Z,50.26
2019-02-23T09:20:29.103Z,49.70
2019-02-23T09:23:00.083Z,51.61
2019-02-23T09:25:22.205Z,51.61
2019-02-23T09:27:49.251Z,50.94
2019-02-23T09:30:16.311Z,50.97
2019-02-23T09:32:44.578Z,51.23
2019-02-23T09:35:12.730Z,51.42
2019-02-23T09:37:39.833Z,51.13
2019-02-23T09:40:08.196Z,50.87
2019-02-23T09:42:37.438Z,50.69
2019-02-23T09:45:05.783Z,49.72
2019-02-23T09:47:33.563Z,50.74
2019-02-23T09:50:01.227Z,49.69
2019-02-23T09:52:30.627Z,49.72
2019-02-23T09:54:58.023Z,48.97
2019-02-23T09:57:25.106Z,48.00
2019-02-23T09:59:53.968Z,47.99
2019-02-23T10:02:21.424Z,46.59
2019-02-23T10:04:48.866Z,46.09
2019-02-23T10:07:17.558Z,47.05
2019-02-23T10:09:44.727Z,46.21
2019-02-23T10:12:12.802Z,46.66
2019-02-23T10:14:40.298Z,45.42
2019-02-23T10:17:09.348Z,45.54
2019-02-23T10:19:37.006Z,45.19
2019-02-23T10:22:04.842Z,45.05
2019-02-23T10:24:32.000Z,45.32
2019-02-23T10:26:59.073Z,44.29
2019-02-23T10:29:26.495Z,44.51
2019-02-23T10:31:54.550Z,43.99
2019-02-23T10:34:21.597Z,44.88
2019-02-23T10:36:49.012Z,43.61
2019-02-23T10:39:16.427Z,44.36
2019-02-23T10:41:43.964Z,43.76
2019-02-23T10:44:11.021Z,43.10
2019-02-23T10:46:38.480Z,43.30
2019-02-23T10:49:07.675Z,43.55
2019-02-23T10:51:34.951Z,43.58
2019-02-23T10:54:02.015Z,42.75
2019-02-23T10:56:29.331Z,43.89
2019-02-23T10:58:56.436Z,42.01
2019-02-23T11:01:23.949Z,42.85
2019-02-23T11:03:52.821Z,43.11
2019-02-23T11:06:19.866Z,42.09
2019-02-23T11:08:47.727Z,42.51
2019-02-23T11:11:16.138Z,42.44
2019-02-23T11:13:45.305Z,40.90
2019-02-23T11:16:13.089Z,41.92
2019-02-23T11:18:40.524Z,41.41
2019-02-23T11:21:07.715Z,40.53
2019-02-23T11:23:43.769Z,40.12
2019-02-23T11:26:04.951Z,39.95
2019-02-23T11:28:32.142Z,41.34
2019-02-23T11:30:59.448Z,40.19
2019-02-23T11:33:26.722Z,39.57
2019-02-23T11:35:53.797Z,40.06
2019-02-23T11:38:20.863Z,40.55
2019-02-23T11:40:49.345Z,39.44
2019-02-23T11:43:18.605Z,40.29
2019-02-23T11:45:45.709Z,39.76
2019-02-23T11:48:12.923Z,39.45
2019-02-23T11:50:42.095Z,39.50
2019-02-23T11:53:09.155Z,38.48
2019-02-23T11:55:37.361Z,38.33
2019-02-23T11:58:04.637Z,39.31
2019-02-23T12:00:31.712Z,37.42
2019-02-23T12:02:58.801Z,37.27
2019-02-23T12:05:27.657Z,37.47
2019-02-23T12:07:54.713Z,37.52
2019-02-23T12:10:22.911Z,37.22
2019-02-23T12:12:49.979Z,37.76
2019-02-23T12:15:18.214Z,38.20
2019-02-23T12:17:46.373Z,37.49
2019-02-23T12:20:15.183Z,37.04
2019-02-23T12:22:42.248Z,36.70
2019-02-23T12:25:15.067Z,37.04
2019-02-23T12:27:40.798Z,36.87
2019-02-23T12:30:09.702Z,36.92
2019-02-23T12:32:37.748Z,35.26
2019-02-23T12:35:05.928Z,35.05
2019-02-23T12:37:33.100Z,36.54
2019-02-23T12:40:00.303Z,36.25
2019-02-23T12:42:28.458Z,35.96
2019-02-23T12:44:56.710Z,35.41
2019-02-23T12:47:24.761Z,36.20
2019-02-23T12:49:53.377Z,34.06
2019-02-23T12:52:25.183Z,35.49
2019-02-23T12:54:52.536Z,34.18
2019-02-23T12:57:19.969Z,35.26
2019-02-23T12:59:48.778Z,35.65
2019-02-23T13:02:16.148Z,35.65
2019-02-23T13:04:43.642Z,35.39
2019-02-23T13:07:12.087Z,35.39
2019-02-23T13:09:44.545Z,35.11
2019-02-23T13:13:00.237Z,33.49
2019-02-23T13:15:31.979Z,34.96
2019-02-23T13:18:29.142Z,34.29
2019-02-23T13:21:30.261Z,34.29
2019-02-23T13:24:30.802Z,34.89
2019-02-23T13:27:38.213Z,34.89
2019-02-23T13:30:47.135Z,34.07
2019-02-23T13:33:52.177Z,34.07
2019-02-23T13:37:02.021Z,33.35
2019-02-23T13:40:00.755Z,34.38
2019-02-23T13:42:58.289Z,34.38
2019-02-23T13:45:40.389Z,32.29
2019-02-23T13:48:50.672Z,32.61
2019-02-23T13:51:56.769Z,33.22
2019-02-23T13:55:27.020Z,32.78
2019-02-23T13:58:05.251Z,32.68
2019-02-23T14:01:22.265Z,33.66
2019-02-23T14:04:30.253Z,33.63
2019-02-23T14:07:42.113Z,34.23
2019-02-23T14:10:39.209Z,34.62
2019-02-23T14:13:51.469Z,34.25
2019-02-23T14:16:54.087Z,34.55
2019-02-23T14:19:56.713Z,33.52
2019-02-23T14:23:09.935Z,35.61
2019-02-23T14:26:10.678Z,35.61
2019-02-23T14:29:09.523Z,35.98
2019-02-23T14:31:59.559Z,35.19
2019-02-23T14:35:26.973Z,35.03
2019-02-23T14:38:29.775Z,35.69
2019-02-23T14:41:44.850Z,35.46
2019-02-23T14:44:57.288Z,36.42
2019-02-23T14:47:51.502Z,34.46
2019-02-23T14:51:09.427Z,34.92
2019-02-23T14:54:04.009Z,34.65
2019-02-23T14:57:18.226Z,33.48
2019-02-23T15:00:19.903Z,34.15
2019-02-23T15:03:19.437Z,33.37
2019-02-23T15:06:14.392Z,33.68
2019-02-23T15:08:59.208Z,34.37
2019-02-23T15:11:57.843Z,35.49
2019-02-23T15:15:11.722Z,36.25
2019-02-23T15:18:36.100Z,36.12
2019-02-23T15:21:17.894Z,37.51
2019-02-23T15:24:42.288Z,37.18
2019-02-23T15:27:27.928Z,38.59
2019-02-23T15:30:46.362Z,38.51
2019-02-23T15:34:12.267Z,38.56
2019-02-23T15:37:12.661Z,39.06
2019-02-23T15:40:09.142Z,38.55
2019-02-23T15:43:30.204Z,38.55
2019-02-23T15:46:51.629Z,37.41
2019-02-23T15:49:27.696Z,38.53
2019-02-23T15:51:55.424Z,38.06
2019-02-23T15:54:23.289Z,38.38
2019-02-23T15:56:53.404Z,38.38
2019-02-23T15:59:22.257Z,40.49
2019-02-23T16:01:49.443Z,40.82
2019-02-23T16:04:16.518Z,39.98
2019-02-23T16:06:43.578Z,39.98
2019-02-23T16:09:12.049Z,40.42
2019-02-23T16:11:39.351Z,40.87
2019-02-23T16:14:07.513Z,40.87
2019-02-23T16:16:36.023Z,39.67
2019-02-23T16:19:03.252Z,41.00
2019-02-23T16:21:30.324Z,41.00
2019-02-23T16:23:58.038Z,40.48
2019-02-23T16:26:25.962Z,41.85
2019-02-23T16:28:55.920Z,41.85
2019-02-23T16:31:23.842Z,41.29
2019-02-23T16:33:51.049Z,41.25
2019-02-23T16:36:19.190Z,41.13
2019-02-23T16:38:46.338Z,41.62
2019-02-23T16:41:15.746Z,41.62
2019-02-23T16:43:42.934Z,41.51
2019-02-23T16:46:13.145Z,42.23
2019-02-23T16:48:41.616Z,42.21
2019-02-23T16:51:09.727Z,42.27
2019-02-23T16:53:38.790Z,42.00
2019-02-23T16:56:06.204Z,42.10
2019-02-23T16:58:33.879Z,41.24
2019-02-23T17:01:04.321Z,40.81
2019-02-23T17:03:32.396Z,41.90
2019-02-23T17:05:59.505Z,42.60
2019-02-23T17:08:27.159Z,42.89
2019-02-23T17:10:55.448Z,43.30
2019-02-23T17:13:22.846Z,43.55
2019-02-23T17:15:51.738Z,43.36
2019-02-23T17:18:19.531Z,43.39
2019-02-23T17:20:47.003Z,43.11
2019-02-23T17:23:14.676Z,43.27
2019-02-23T17:25:44.943Z,43.93
2019-02-23T17:28:12.400Z,44.04
2019-02-23T17:30:40.165Z,44.11
2019-02-23T17:33:07.697Z,44.08
2019-02-23T17:35:36.838Z,44.35
2019-02-23T17:38:15.647Z,44.49
2019-02-23T17:40:36.041Z,44.52
2019-02-23T17:43:05.357Z,45.05
2019-02-23T17:49:40.532Z,45.37
2019-02-23T17:52:07.542Z,44.70
2019-02-23T17:54:36.002Z,45.22
2019-02-23T17:57:04.409Z,45.83
2019-02-23T17:59:31.409Z,46.11
2019-02-23T18:01:58.420Z,46.09
2019-02-23T18:04:25.845Z,46.80
2019-02-23T18:06:53.211Z,47.28
2019-02-23T18:09:20.246Z,46.82
2019-02-23T18:11:47.245Z,46.70
2019-02-23T18:14:14.253Z,47.07
2019-02-23T18:16:42.411Z,47.57
2019-02-23T18:19:09.412Z,46.60
2019-02-23T18:21:36.419Z,46.28
2019-02-23T18:24:03.469Z,46.28
2019-02-23T18:26:30.829Z,46.71
2019-02-23T18:28:57.863Z,46.37
2019-02-23T18:31:24.898Z,46.99
2019-02-23T18:33:51.909Z,46.61
2019-02-23T18:36:18.971Z,46.80
2019-02-23T18:38:48.003Z,47.29
2019-02-23T18:41:15.295Z,47.10
2019-02-23T18:43:42.452Z,46.54
2019-02-23T18:46:09.567Z,46.91
2019-02-23T18:48:37.245Z,46.73
2019-02-23T18:51:06.544Z,46.88
2019-02-23T18:53:34.135Z,47.09
2019-02-23T18:56:01.604Z,46.55
2019-02-23T18:58:29.891Z,46.04
2019-02-23T19:00:57.289Z,46.40
2019-02-23T19:03:26.687Z,46.54
2019-02-23T19:05:56.060Z,46.70
2019-02-23T19:08:24.029Z,46.97
2019-02-23T19:10:52.233Z,46.89
2019-02-23T19:13:19.573Z,46.67
2019-02-23T19:15:49.473Z,45.90
2019-02-23T19:18:18.938Z,46.73
2019-02-23T19:20:46.574Z,46.59
2019-02-23T19:23:13.754Z,45.90
2019-02-23T19:25:42.709Z,45.89
2019-02-23T19:28:10.036Z,46.63
2019-02-23T19:30:37.693Z,46.58
2019-02-23T19:33:05.559Z,46.67
2019-02-23T19:35:33.345Z,46.99
2019-02-23T19:38:02.630Z,47.02
2019-02-23T19:40:30.303Z,47.09
2019-02-23T19:42:59.018Z,46.88
2019-02-23T19:45:26.469Z,46.93
2019-02-23T19:47:54.775Z,47.70
2019-02-23T19:50:34.536Z,47.33
2019-02-23T19:53:01.651Z,47.35
2019-02-23T19:55:29.404Z,47.59
2019-02-23T19:57:57.022Z,47.10
2019-02-23T20:00:25.052Z,47.12
2019-02-23T20:02:52.991Z,47.38
2019-02-23T20:05:21.119Z,47.63
2019-02-23T20:07:49.337Z,47.36
2019-02-23T20:10:16.677Z,47.83
2019-02-23T20:12:44.115Z,47.16
2019-02-23T20:15:12.290Z,46.96
2019-02-23T20:17:41.373Z,47.20
2019-02-23T20:20:08.561Z,47.35
2019-02-23T20:22:36.419Z,46.08
2019-02-23T20:25:05.046Z,46.26
2019-02-23T20:27:33.522Z,46.04
2019-02-23T20:30:01.990Z,45.89
2019-02-23T20:32:31.666Z,46.24
2019-02-23T20:35:00.531Z,46.08
2019-02-23T20:37:28.741Z,46.79
2019-02-23T20:39:55.811Z,46.72
2019-02-23T20:42:23.450Z,47.16
2019-02-23T20:44:54.127Z,46.86
2019-02-23T20:47:21.697Z,46.74
2019-02-23T20:49:50.394Z,46.44
2019-02-23T20:52:17.866Z,46.26
2019-02-23T20:54:45.631Z,45.44
2019-02-23T20:57:14.015Z,46.50
2019-02-23T20:59:42.319Z,47.22
2019-02-23T21:02:10.057Z,46.46
2019-02-23T21:04:38.930Z,45.93
2019-02-23T21:07:06.035Z,46.74
2019-02-23T21:09:35.009Z,46.51
2019-02-23T21:12:02.478Z,46.88
2019-02-23T21:14:29.702Z,45.95
2019-02-23T21:16:57.889Z,44.80
2019-02-23T21:19:25.051Z,44.93
2019-02-23T21:21:52.140Z,45.28
2019-02-23T21:24:19.207Z,45.51
2019-02-23T21:26:46.383Z,45.11
2019-02-23T21:29:14.749Z,44.49
2019-02-23T21:31:42.035Z,44.30
2019-02-23T21:34:09.186Z,44.41
2019-02-23T21:36:36.549Z,45.18
2019-02-23T21:39:04.456Z,44.65
2019-02-23T21:41:33.715Z,44.47
2019-02-23T21:44:01.111Z,44.46
2019-02-23T21:46:28.771Z,44.46
2019-02-23T21:48:56.243Z,44.32
2019-02-23T21:51:23.298Z,43.60
2019-02-23T21:53:50.470Z,44.11
2019-02-23T21:56:18.150Z,44.28
2019-02-23T21:58:46.054Z,44.27
2019-02-23T22:01:14.579Z,43.65
2019-02-23T22:03:42.976Z,44.30
2019-02-23T22:06:10.019Z,44.02
2019-02-23T22:08:37.494Z,43.97
2019-02-23T22:11:04.604Z,43.64
2019-02-23T22:13:31.762Z,44.15
2019-02-23T22:15:58.830Z,44.61
2019-02-23T22:18:27.082Z,45.26
2019-02-23T22:20:54.435Z,45.09
2019-02-23T22:23:23.785Z,45.01
2019-02-23T22:25:51.216Z,44.82
2019-02-23T22:28:20.482Z,46.55
2019-02-23T22:30:47.551Z,44.65
2019-02-23T22:33:14.900Z,44.41
2019-02-23T22:35:42.343Z,44.25
2019-02-23T22:38:11.123Z,45.49
2019-02-23T22:40:38.667Z,46.74
2019-02-23T22:43:06.134Z,45.22
2019-02-23T22:45:33.594Z,44.10
2019-02-23T22:48:00.781Z,45.35
2019-02-23T22:50:28.174Z,45.30
2019-02-23T22:52:55.766Z,44.72
2019-02-23T22:55:23.813Z,46.00
2019-02-23T22:57:51.281Z,47.02
2019-02-23T23:00:23.189Z,48.25
2019-02-23T23:02:54.198Z,46.48
2019-02-23T23:05:22.572Z,47.50
2019-02-23T23:07:50.342Z,46.88
2019-02-23T23:10:17.916Z,46.71
2019-02-23T23:12:44.979Z,46.59
2019-02-23T23:15:12.380Z,48.52
2019-02-23T23:17:40.242Z,47.90
2019-02-23T23:20:08.112Z,48.72
2019-02-23T23:22:35.172Z,48.34
2019-02-23T23:25:02.907Z,49.33
2019-02-23T23:27:30.819Z,47.98
2019-02-23T23:29:59.377Z,47.90
2019-02-23T23:32:27.279Z,47.95
2019-02-23T23:34:54.353Z,46.27
2019-02-23T23:37:22.054Z,46.46
2019-02-23T23:39:49.814Z,46.67
2019-02-23T23:42:17.647Z,45.77
2019-02-23T23:44:45.233Z,47.61
2019-02-23T23:47:13.026Z,47.51
2019-02-23T23:49:40.462Z,46.03
2019-02-23T23:52:08.116Z,46.35
2019-02-23T23:54:35.878Z,47.17
2019-02-23T23:57:02.925Z,47.04
2019-02-23T23:59:30.037Z,47.16
